Time;durP1;ratioP1;P1;durP2;ratioP2;P2;SDS_P1;SDS_P2;PMS_P1;PMS_P2;Temp;Humidity;BMP_temperature;BMP_pressure;BME280_temperature;BME280_humidity;BME280_pressure;Samples;Min_cycle;Max_cycle;Signal;HPM_P1;HPM_P2
2023/10/04 00:00:15;;;;;;;11.88;3.15;;;;;;;;;;6307832;22;20022;-86
2023/10/04 00:03:08;;;;;;;8.75;3.58;;;;;;;;;;6308458;22;20428;-86
2023/10/04 00:05:36;;;;;;;9.77;3.22;;;;;;;;;;6249802;22;20347;-86
2023/10/04 00:08:03;;;;;;;17.48;4.25;;;;;;;;;;6254477;22;20019;-86
2023/10/04 00:10:33;;;;;;;12.68;2.97;;;;;;;;;;6281198;22;20065;-86
2023/10/04 00:12:59;;;;;;;14.30;3.20;;;;;;;;;;6280390;22;20098;-86
2023/10/04 00:15:27;;;;;;;14.65;3.63;;;;;;;;;;6255222;22;20096;-86
2023/10/04 00:17:53;;;;;;;11.27;3.60;;;;;;;;;;6308097;22;20096;-86
2023/10/04 00:20:20;;;;;;;13.10;4.25;;;;;;;;;;6255437;22;20325;-86
2023/10/04 00:22:47;;;;;;;10.40;3.03;;;;;;;;;;6281306;22;20026;-87
2023/10/04 00:25:20;;;;;;;15.02;3.15;;;;;;;;;;6255673;22;20019;-86
2023/10/04 00:27:46;;;;;;;8.52;3.03;;;;;;;;;;6280517;22;20019;-86
2023/10/04 00:30:18;;;;;;;12.52;2.88;;;;;;;;;;6254710;22;20015;-86
2023/10/04 00:32:46;;;;;;;10.10;2.92;;;;;;;;;;6281230;22;20047;-86
2023/10/04 00:35:19;;;;;;;8.98;3.10;;;;;;;;;;6279477;22;20444;-87
2023/10/04 00:37:51;;;;;;;10.20;2.95;;;;;;;;;;6280335;22;20444;-86
2023/10/04 00:40:21;;;;;;;13.43;3.08;;;;;;;;;;6255304;22;20087;-86
2023/10/04 00:42:49;;;;;;;13.48;3.78;;;;;;;;;;6279099;22;20064;-86
2023/10/04 00:45:19;;;;;;;13.25;2.97;;;;;;;;;;6280546;22;20019;-86
2023/10/04 00:47:47;;;;;;;9.05;3.15;;;;;;;;;;6255404;22;20340;-86
2023/10/04 00:50:18;;;;;;;11.77;3.22;;;;;;;;;;6254946;22;20089;-86
2023/10/04 00:52:47;;;;;;;16.92;3.75;;;;;;;;;;6254614;22;20428;-86
2023/10/04 00:55:14;;;;;;;11.20;3.22;;;;;;;;;;6254453;22;20019;-86
2023/10/04 00:57:40;;;;;;;15.63;3.95;;;;;;;;;;6254814;22;20090;-86
2023/10/04 01:00:09;;;;;;;11.30;3.40;;;;;;;;;;6308987;22;20387;-86
2023/10/04 01:02:36;;;;;;;7.20;2.80;;;;;;;;;;6255075;22;20018;-86
2023/10/04 01:05:03;;;;;;;15.02;3.38;;;;;;;;;;6254348;22;20029;-86
2023/10/04 01:07:30;;;;;;;7.97;2.72;;;;;;;;;;6308047;22;20019;-86
2023/10/04 01:09:56;;;;;;;11.75;3.20;;;;;;;;;;6280571;22;20033;-86
2023/10/04 01:12:25;;;;;;;7.70;3.13;;;;;;;;;;6254142;22;20367;-86
2023/10/04 01:14:53;;;;;;;10.23;3.10;;;;;;;;;;6280397;22;20011;-86
2023/10/04 01:17:20;;;;;;;10.20;3.17;;;;;;;;;;6254634;22;20091;-86
2023/10/04 01:19:46;;;;;;;10.75;3.35;;;;;;;;;;6279873;22;20446;-86
2023/10/04 01:22:12;;;;;;;12.52;3.25;;;;;;;;;;6280441;22;20456;-86
2023/10/04 01:24:41;;;;;;;10.45;2.80;;;;;;;;;;6254591;22;20313;-86
2023/10/04 01:27:10;;;;;;;9.10;3.22;;;;;;;;;;6279763;22;20088;-86
2023/10/04 01:29:38;;;;;;;11.70;3.10;;;;;;;;;;6307061;22;20466;-86
2023/10/04 01:32:08;;;;;;;7.22;3.13;;;;;;;;;;6307904;22;20086;-86
2023/10/04 01:34:36;;;;;;;8.30;2.90;;;;;;;;;;6307432;22;20068;-86
2023/10/04 01:37:04;;;;;;;12.88;3.92;;;;;;;;;;6254860;22;20023;-86
2023/10/04 01:39:30;;;;;;;8.88;3.33;;;;;;;;;;6280222;22;20023;-86
2023/10/04 01:41:56;;;;;;;11.90;3.75;;;;;;;;;;6307247;22;20099;-86
2023/10/04 01:44:22;;;;;;;10.27;3.47;;;;;;;;;;6253623;22;20043;-86
2023/10/04 01:46:49;;;;;;;10.43;3.42;;;;;;;;;;6279493;22;20015;-86
2023/10/04 01:49:15;;;;;;;9.73;3.42;;;;;;;;;;6279532;22;20019;-86
2023/10/04 01:51:42;;;;;;;11.77;3.20;;;;;;;;;;6279630;22;20097;-86
2023/10/04 01:54:12;;;;;;;9.48;3.40;;;;;;;;;;6280190;22;20015;-86
2023/10/04 01:56:38;;;;;;;12.30;3.28;;;;;;;;;;6254548;22;20058;-87
2023/10/04 01:59:05;;;;;;;9.68;3.40;;;;;;;;;;6280287;22;20462;-86
2023/10/04 02:01:31;;;;;;;9.05;2.88;;;;;;;;;;6279969;22;20019;-86
2023/10/04 02:04:01;;;;;;;10.75;3.40;;;;;;;;;;6279148;22;20077;-86
2023/10/04 02:06:28;;;;;;;9.43;3.15;;;;;;;;;;6279932;22;20069;-86
2023/10/04 02:08:55;;;;;;;11.15;3.33;;;;;;;;;;6279717;22;20467;-86
2023/10/04 02:11:22;;;;;;;14.73;3.22;;;;;;;;;;6307060;22;20019;-87
2023/10/04 02:13:48;;;;;;;12.75;3.30;;;;;;;;;;6254238;22;20455;-86
2023/10/04 02:16:18;;;;;;;11.45;3.15;;;;;;;;;;6307280;22;20026;-86
2023/10/04 02:18:45;;;;;;;8.73;2.90;;;;;;;;;;6279627;22;20613;-87
2023/10/04 02:21:11;;;;;;;11.00;2.97;;;;;;;;;;6279425;22;20408;-86
2023/10/04 02:23:38;;;;;;;8.77;3.05;;;;;;;;;;6279921;22;20094;-86
2023/10/04 02:26:07;;;;;;;9.40;2.92;;;;;;;;;;6253197;22;20051;-86
2023/10/04 02:28:33;;;;;;;9.85;2.85;;;;;;;;;;6306284;22;20049;-86
2023/10/04 02:31:02;;;;;;;8.90;3.10;;;;;;;;;;6253897;22;20054;-86
2023/10/04 02:33:34;;;;;;;11.05;3.70;;;;;;;;;;6252773;22;20023;-86
2023/10/04 02:36:00;;;;;;;9.13;3.47;;;;;;;;;;6279905;22;20440;-86
2023/10/04 02:38:27;;;;;;;13.10;3.85;;;;;;;;;;6254082;22;20053;-86
2023/10/04 02:40:54;;;;;;;8.65;3.15;;;;;;;;;;6253696;22;20015;-86
2023/10/04 02:43:20;;;;;;;10.75;3.15;;;;;;;;;;6307056;22;20011;-87
2023/10/04 02:45:52;;;;;;;10.02;3.50;;;;;;;;;;6278666;22;20089;-86
2023/10/04 02:48:19;;;;;;;9.27;3.13;;;;;;;;;;6278999;22;20015;-86
2023/10/04 02:50:46;;;;;;;15.55;3.45;;;;;;;;;;6253490;22;20024;-86
2023/10/04 02:53:13;;;;;;;14.70;3.70;;;;;;;;;;6279481;22;20073;-86
2023/10/04 02:55:40;;;;;;;13.20;3.28;;;;;;;;;;6253425;22;20374;-86
2023/10/04 02:58:07;;;;;;;12.60;3.33;;;;;;;;;;6306671;22;20015;-86
2023/10/04 03:00:33;;;;;;;9.93;2.92;;;;;;;;;;6253984;22;20023;-86
2023/10/04 03:03:00;;;;;;;7.57;3.03;;;;;;;;;;6279434;22;20094;-86
2023/10/04 03:05:29;;;;;;;8.75;3.40;;;;;;;;;;6253952;22;20091;-86
2023/10/04 03:07:55;;;;;;;12.15;3.50;;;;;;;;;;6306852;22;20019;-86
2023/10/04 03:10:24;;;;;;;12.13;3.55;;;;;;;;;;6252711;22;20095;-86
2023/10/04 03:12:53;;;;;;;12.65;3.10;;;;;;;;;;6306395;22;20038;-86
2023/10/04 03:15:23;;;;;;;10.32;3.13;;;;;;;;;;6306787;22;20025;-86
2023/10/04 03:17:53;;;;;;;11.30;3.50;;;;;;;;;;6307940;22;20443;-87
2023/10/04 03:20:23;;;;;;;10.75;3.10;;;;;;;;;;6281384;22;20022;-86
2023/10/04 03:22:57;;;;;;;12.02;3.40;;;;;;;;;;6281703;22;20019;-87
2023/10/04 03:25:24;;;;;;;11.63;3.42;;;;;;;;;;6280684;22;20055;-86
2023/10/04 03:27:52;;;;;;;10.50;3.30;;;;;;;;;;6281525;22;20447;-86
2023/10/04 03:30:18;;;;;;;12.07;3.08;;;;;;;;;;6280878;22;20407;-86
2023/10/04 03:32:49;;;;;;;10.55;3.35;;;;;;;;;;6280244;22;20019;-86
2023/10/04 03:35:15;;;;;;;19.77;3.53;;;;;;;;;;6254912;22;20046;-86
2023/10/04 03:37:50;;;;;;;17.10;3.50;;;;;;;;;;6308491;22;20021;-86
2023/10/04 03:40:17;;;;;;;10.13;3.28;;;;;;;;;;6307874;22;20420;-86
2023/10/04 03:42:43;;;;;;;11.50;3.67;;;;;;;;;;6255214;22;20020;-86
2023/10/04 03:45:11;;;;;;;12.07;3.95;;;;;;;;;;6281048;22;20019;-86
2023/10/04 03:47:39;;;;;;;9.60;3.33;;;;;;;;;;6281457;22;20094;-86
2023/10/04 03:50:09;;;;;;;10.80;2.88;;;;;;;;;;6280813;22;20502;-86
2023/10/04 03:52:35;;;;;;;10.55;3.50;;;;;;;;;;6281078;22;20047;-86
2023/10/04 03:55:06;;;;;;;9.85;3.00;;;;;;;;;;6308033;22;20110;-86
2023/10/04 03:57:33;;;;;;;8.27;2.70;;;;;;;;;;6253124;22;20011;-86
2023/10/04 04:00:12;;;;;;;9.10;3.17;;;;;;;;;;6280613;22;20051;-86
2023/10/04 04:02:39;;;;;;;10.98;3.13;;;;;;;;;;6280382;22;20499;-86
2023/10/04 04:05:09;;;;;;;14.98;4.15;;;;;;;;;;6280951;22;20017;-86
2023/10/04 04:07:35;;;;;;;10.43;3.42;;;;;;;;;;6308598;22;20022;-87
2023/10/04 04:10:05;;;;;;;13.45;3.47;;;;;;;;;;6253975;22;20446;-86
2023/10/04 04:12:31;;;;;;;14.00;3.60;;;;;;;;;;6255084;22;20015;-86
2023/10/04 04:14:57;;;;;;;10.85;3.33;;;;;;;;;;6255600;22;20015;-86
2023/10/04 04:17:23;;;;;;;16.38;4.15;;;;;;;;;;6308400;22;20043;-86
2023/10/04 04:19:49;;;;;;;13.30;3.25;;;;;;;;;;6254931;22;20019;-86
2023/10/04 04:22:23;;;;;;;18.02;3.90;;;;;;;;;;6281105;22;20020;-86
2023/10/04 04:24:50;;;;;;;11.68;3.60;;;;;;;;;;6280883;22;20381;-86
2023/10/04 04:27:22;;;;;;;11.95;3.55;;;;;;;;;;6280451;22;20023;-86
2023/10/04 04:29:52;;;;;;;13.48;3.95;;;;;;;;;;6255388;22;20026;-86
2023/10/04 04:32:26;;;;;;;12.40;4.03;;;;;;;;;;6279925;22;20045;-86
2023/10/04 04:34:53;;;;;;;12.25;3.38;;;;;;;;;;6254936;22;20029;-86
2023/10/04 04:37:19;;;;;;;10.45;2.95;;;;;;;;;;6254993;22;20022;-86
2023/10/04 04:39:45;;;;;;;12.55;4.30;;;;;;;;;;6280539;22;20019;-86
2023/10/04 04:42:12;;;;;;;8.98;3.58;;;;;;;;;;6255066;22;20019;-86
2023/10/04 04:44:42;;;;;;;10.75;3.55;;;;;;;;;;6280400;22;20023;-86
2023/10/04 04:47:10;;;;;;;9.85;3.15;;;;;;;;;;6280225;22;20120;-86
2023/10/04 04:49:37;;;;;;;9.90;3.33;;;;;;;;;;6279739;22;20090;-86
2023/10/04 04:52:05;;;;;;;10.82;4.00;;;;;;;;;;6280509;22;20065;-86
2023/10/04 04:54:33;;;;;;;15.82;3.97;;;;;;;;;;6307611;22;20431;-86
2023/10/04 04:57:00;;;;;;;9.43;3.92;;;;;;;;;;6255299;22;20015;-86
2023/10/04 04:59:26;;;;;;;15.18;3.83;;;;;;;;;;6279289;22;20022;-86
2023/10/04 05:01:55;;;;;;;13.57;4.38;;;;;;;;;;6254629;22;20504;-86
2023/10/04 05:04:22;;;;;;;11.48;3.60;;;;;;;;;;6307532;22;20019;-86
2023/10/04 05:06:49;;;;;;;11.65;3.45;;;;;;;;;;6280366;22;20336;-86
2023/10/04 05:09:17;;;;;;;10.98;3.67;;;;;;;;;;6307456;22;20016;-86
2023/10/04 05:11:45;;;;;;;15.48;4.13;;;;;;;;;;6308129;22;20288;-86
2023/10/04 05:14:11;;;;;;;9.27;3.90;;;;;;;;;;6280145;22;20019;-86
2023/10/04 05:16:38;;;;;;;8.27;3.22;;;;;;;;;;6253994;22;20015;-86
2023/10/04 05:19:05;;;;;;;10.57;3.70;;;;;;;;;;6254805;22;20019;-86
2023/10/04 05:21:31;;;;;;;11.85;3.70;;;;;;;;;;6255073;22;20016;-86
2023/10/04 05:23:57;;;;;;;8.70;3.65;;;;;;;;;;6253837;22;20065;-86
2023/10/04 05:26:23;;;;;;;11.75;3.90;;;;;;;;;;6254978;22;20416;-86
2023/10/04 05:28:50;;;;;;;11.85;3.60;;;;;;;;;;6280006;22;20031;-87
2023/10/04 05:31:16;;;;;;;12.27;3.75;;;;;;;;;;6307420;22;20034;-87
2023/10/04 05:33:42;;;;;;;10.23;3.90;;;;;;;;;;6254172;22;20019;-86
2023/10/04 05:36:09;;;;;;;10.63;4.00;;;;;;;;;;6254486;22;20011;-86
2023/10/04 05:38:35;;;;;;;12.70;3.85;;;;;;;;;;6254185;22;20041;-86
2023/10/04 05:41:03;;;;;;;8.63;3.58;;;;;;;;;;6254517;22;20015;-86
2023/10/04 05:43:29;;;;;;;10.20;4.05;;;;;;;;;;6254819;22;20094;-86
2023/10/04 05:45:56;;;;;;;8.13;3.50;;;;;;;;;;6279931;22;20086;-86
2023/10/04 05:48:22;;;;;;;14.10;4.15;;;;;;;;;;6253417;22;20019;-86
2023/10/04 05:50:54;;;;;;;12.32;3.78;;;;;;;;;;6307363;22;20046;-86
2023/10/04 05:53:21;;;;;;;12.55;4.13;;;;;;;;;;6279680;22;20085;-89
2023/10/04 05:55:51;;;;;;;10.93;4.10;;;;;;;;;;6255117;22;20094;-87
2023/10/04 05:58:18;;;;;;;12.30;4.22;;;;;;;;;;6254608;22;20015;-86
2023/10/04 06:00:50;;;;;;;12.43;3.83;;;;;;;;;;6253943;22;20015;-87
2023/10/04 06:03:17;;;;;;;19.40;4.00;;;;;;;;;;6253350;22;20016;-86
2023/10/04 06:05:43;;;;;;;12.10;4.20;;;;;;;;;;6279997;22;20074;-86
2023/10/04 06:08:12;;;;;;;12.15;4.32;;;;;;;;;;6279626;22;20023;-86
2023/10/04 06:10:39;;;;;;;11.75;3.83;;;;;;;;;;6254342;22;20356;-86
2023/10/04 06:13:11;;;;;;;11.55;4.22;;;;;;;;;;6281113;22;20022;-86
2023/10/04 06:15:44;;;;;;;11.50;4.03;;;;;;;;;;6280544;22;20011;-88
2023/10/04 06:18:14;;;;;;;10.07;3.70;;;;;;;;;;6253598;22;20019;-87
2023/10/04 06:20:40;;;;;;;11.20;4.57;;;;;;;;;;6253473;22;20072;-87
2023/10/04 06:23:10;;;;;;;8.85;3.80;;;;;;;;;;6280121;22;20011;-86
2023/10/04 06:25:44;;;;;;;10.32;4.15;;;;;;;;;;6254022;22;20019;-86
2023/10/04 06:28:10;;;;;;;12.30;4.50;;;;;;;;;;6279922;22;20312;-87
2023/10/04 06:30:37;;;;;;;15.07;4.07;;;;;;;;;;6253454;22;20339;-86
2023/10/04 06:33:04;;;;;;;13.88;4.57;;;;;;;;;;6279759;22;20438;-87
2023/10/04 06:35:32;;;;;;;11.43;4.28;;;;;;;;;;6253543;22;20011;-86
2023/10/04 06:38:01;;;;;;;11.95;4.55;;;;;;;;;;6280111;22;20360;-87
2023/10/04 06:40:31;;;;;;;12.35;4.20;;;;;;;;;;6279411;22;20012;-86
2023/10/04 06:42:58;;;;;;;9.80;4.15;;;;;;;;;;6254327;22;20343;-86
2023/10/04 06:45:27;;;;;;;10.65;3.92;;;;;;;;;;6255470;22;20372;-86
2023/10/04 06:47:55;;;;;;;16.85;5.13;;;;;;;;;;6281226;22;20050;-86
2023/10/04 06:50:22;;;;;;;11.07;4.03;;;;;;;;;;6278865;22;20019;-86
2023/10/04 06:52:49;;;;;;;15.10;4.63;;;;;;;;;;6253673;22;20431;-86
2023/10/04 06:55:16;;;;;;;9.95;3.78;;;;;;;;;;6308005;22;20021;-86
2023/10/04 06:57:45;;;;;;;10.07;3.90;;;;;;;;;;6253546;22;20018;-86
2023/10/04 07:00:16;;;;;;;14.48;3.97;;;;;;;;;;6253251;22;20019;-86
2023/10/04 07:02:49;;;;;;;11.10;4.65;;;;;;;;;;6254128;22;20023;-86
2023/10/04 07:05:19;;;;;;;11.23;3.83;;;;;;;;;;6255752;22;20451;-87
2023/10/04 07:07:46;;;;;;;11.93;4.80;;;;;;;;;;6257081;22;20094;-86
2023/10/04 07:10:20;;;;;;;11.15;4.00;;;;;;;;;;6252707;22;20030;-89
2023/10/04 07:12:54;;;;;;;9.05;4.13;;;;;;;;;;6254041;22;20019;-85
2023/10/04 07:15:21;;;;;;;14.88;4.32;;;;;;;;;;6253841;22;20165;-86
2023/10/04 07:17:48;;;;;;;12.77;4.43;;;;;;;;;;6279523;22;20451;-85
2023/10/04 07:20:15;;;;;;;10.27;4.70;;;;;;;;;;6280594;22;20011;-85
2023/10/04 07:22:45;;;;;;;11.98;4.18;;;;;;;;;;6252645;22;20045;-85
2023/10/04 07:25:20;;;;;;;12.88;4.18;;;;;;;;;;6254318;22;20019;-89
2023/10/04 07:27:53;;;;;;;13.85;3.92;;;;;;;;;;6254672;22;20019;-86
2023/10/04 07:30:19;;;;;;;9.80;3.80;;;;;;;;;;6254149;22;20016;-85
2023/10/04 07:32:46;;;;;;;13.60;4.40;;;;;;;;;;6255135;22;20015;-85
2023/10/04 07:35:18;;;;;;;10.63;4.07;;;;;;;;;;6280359;22;20012;-85
2023/10/04 07:37:45;;;;;;;9.88;4.10;;;;;;;;;;6254371;22;20069;-84
2023/10/04 07:40:15;;;;;;;9.52;4.07;;;;;;;;;;6254044;22;20011;-85
2023/10/04 07:42:42;;;;;;;12.68;3.90;;;;;;;;;;6278859;22;20026;-87
2023/10/04 07:48:18;;;;;;;8.90;3.83;;;;;;;;;;6269905;22;20023;-87
2023/10/04 07:50:53;;;;;;;9.32;4.07;;;;;;;;;;6256950;22;20015;-86
2023/10/04 07:53:21;;;;;;;11.15;4.03;;;;;;;;;;6255447;22;20015;-86
2023/10/04 07:55:50;;;;;;;14.82;4.03;;;;;;;;;;6254654;22;20019;-86
2023/10/04 07:58:17;;;;;;;10.07;4.00;;;;;;;;;;6255411;22;20016;-85
2023/10/04 08:00:43;;;;;;;12.00;4.15;;;;;;;;;;6254429;22;20023;-85
2023/10/04 08:03:09;;;;;;;11.05;4.10;;;;;;;;;;6254770;22;20012;-85
2023/10/04 08:05:38;;;;;;;10.30;3.85;;;;;;;;;;6255377;22;20079;-85
2023/10/04 08:08:07;;;;;;;11.25;4.07;;;;;;;;;;6256345;22;20511;-85
2023/10/04 08:11:05;;;;;;;13.63;4.63;;;;;;;;;;6256535;22;20094;-88
2023/10/04 08:13:38;;;;;;;12.93;5.22;;;;;;;;;;6254481;22;20016;-87
2023/10/04 08:16:05;;;;;;;12.70;4.95;;;;;;;;;;6255356;22;20073;-87
2023/10/04 08:18:35;;;;;;;11.73;4.00;;;;;;;;;;6253624;22;20387;-86
2023/10/04 08:21:11;;;;;;;9.68;3.72;;;;;;;;;;6254932;22;20094;-86
2023/10/04 08:23:37;;;;;;;13.32;5.47;;;;;;;;;;6306961;22;20015;-86
2023/10/04 08:26:12;;;;;;;11.93;4.13;;;;;;;;;;6254325;22;20090;-86
2023/10/04 08:28:41;;;;;;;12.45;4.43;;;;;;;;;;6254280;22;20023;-86
2023/10/04 08:31:14;;;;;;;10.77;3.80;;;;;;;;;;6254620;22;20015;-86
2023/10/04 08:33:48;;;;;;;13.57;4.70;;;;;;;;;;6254791;22;20026;-86
2023/10/04 08:36:21;;;;;;;10.38;3.80;;;;;;;;;;6255776;22;20015;-86
2023/10/04 08:38:48;;;;;;;11.48;4.22;;;;;;;;;;6254142;22;20022;-86
2023/10/04 08:41:20;;;;;;;8.95;4.15;;;;;;;;;;6253414;22;20047;-86
2023/10/04 08:43:47;;;;;;;12.20;3.97;;;;;;;;;;6254975;22;20016;-86
2023/10/04 08:46:16;;;;;;;12.27;4.07;;;;;;;;;;6254970;22;20376;-86
2023/10/04 08:48:53;;;;;;;11.93;3.75;;;;;;;;;;6254420;22;20128;-86
2023/10/04 08:51:27;;;;;;;14.25;4.57;;;;;;;;;;6254686;22;20015;-87
2023/10/04 08:54:13;;;;;;;14.15;4.38;;;;;;;;;;6255227;22;20015;-87
2023/10/04 08:56:48;;;;;;;14.07;5.05;;;;;;;;;;6255422;22;20034;-87
2023/10/04 08:59:44;;;;;;;13.70;4.82;;;;;;;;;;6255938;22;20054;-89
2023/10/04 09:02:15;;;;;;;11.90;4.10;;;;;;;;;;6283390;22;20012;-86
2023/10/04 09:04:49;;;;;;;11.18;4.35;;;;;;;;;;6255823;22;20072;-86
2023/10/04 09:07:19;;;;;;;11.10;4.30;;;;;;;;;;6255559;22;20037;-86
2023/10/04 09:09:46;;;;;;;10.27;4.20;;;;;;;;;;6280657;22;20015;-86
2023/10/04 09:12:12;;;;;;;10.23;4.20;;;;;;;;;;6255225;22;20061;-87
2023/10/04 09:14:41;;;;;;;12.32;3.95;;;;;;;;;;6255212;22;20015;-86
2023/10/04 09:17:19;;;;;;;12.68;4.57;;;;;;;;;;6255104;22;20051;-88
2023/10/04 09:19:55;;;;;;;8.70;3.80;;;;;;;;;;6254933;22;20022;-87
2023/10/04 09:22:31;;;;;;;10.57;3.97;;;;;;;;;;6254434;22;20435;-87
2023/10/04 09:24:57;;;;;;;;;;;;;;;;;;6255721;22;20018;-87
2023/10/04 09:27:23;;;;;;;9.80;4.20;;;;;;;;;;6254513;22;20025;-87
2023/10/04 09:29:50;;;;;;;10.23;4.43;;;;;;;;;;6254862;22;20060;-88
2023/10/04 09:36:02;;;;;;;10.80;4.80;;;;;;;;;;6233255;22;20019;-88
2023/10/04 09:38:38;;;;;;;7.47;4.03;;;;;;;;;;6255129;22;20022;-87
2023/10/04 09:41:21;;;;;;;13.00;4.22;;;;;;;;;;6255557;22;20015;-88
2023/10/04 09:44:20;;;;;;;17.52;4.85;;;;;;;;;;6255061;22;20011;-88
2023/10/04 09:47:05;;;;;;;12.23;4.70;;;;;;;;;;6253400;22;20086;-88
2023/10/04 10:04:08;;;;;;;;;;;;;;;;;;;;;
2023/10/04 10:10:45;;;;;;;12.32;4.32;;;;;;;;;;6045272;23;20055;-87
2023/10/04 10:13:54;;;;;;;12.20;4.40;;;;;;;;;;6058202;23;20348;-88
2023/10/04 10:16:23;;;;;;;11.45;4.45;;;;;;;;;;6161778;23;20046;-87
2023/10/04 10:18:55;;;;;;;13.52;4.90;;;;;;;;;;6249531;22;20352;-86
2023/10/04 10:21:21;;;;;;;10.88;4.65;;;;;;;;;;6254548;22;20093;-85
2023/10/04 10:23:57;;;;;;;9.90;4.72;;;;;;;;;;6254106;22;20019;-86
2023/10/04 10:26:24;;;;;;;12.15;4.25;;;;;;;;;;6307110;22;20012;-86
2023/10/04 10:29:08;;;;;;;17.42;4.60;;;;;;;;;;6254862;22;20015;-86
2023/10/04 10:31:35;;;;;;;14.60;4.57;;;;;;;;;;6255673;22;20071;-86
2023/10/04 10:34:01;;;;;;;20.08;4.28;;;;;;;;;;6255282;22;20022;-86
2023/10/04 10:36:28;;;;;;;14.32;4.70;;;;;;;;;;6280048;22;20447;-86
2023/10/04 10:38:57;;;;;;;11.65;4.40;;;;;;;;;;6254807;22;20103;-86
2023/10/04 10:41:32;;;;;;;12.30;5.20;;;;;;;;;;6254977;22;20019;-85
2023/10/04 10:44:17;;;;;;;14.35;4.90;;;;;;;;;;6254290;22;20015;-85
2023/10/04 10:47:04;;;;;;;12.35;4.40;;;;;;;;;;6254140;22;20022;-85
2023/10/04 10:49:40;;;;;;;11.85;4.15;;;;;;;;;;6280159;22;20023;-86
2023/10/04 10:52:10;;;;;;;9.45;4.15;;;;;;;;;;6254558;22;20065;-84
2023/10/04 10:54:36;;;;;;;11.20;4.20;;;;;;;;;;6280383;22;20041;-87
2023/10/04 10:57:05;;;;;;;12.95;4.78;;;;;;;;;;6279741;22;20015;-86
2023/10/04 11:00:11;;;;;;;13.18;4.40;;;;;;;;;;6254666;22;20019;-86
2023/10/04 11:03:32;;;;;;;;;;;;;;;;;;;;;
2023/10/04 11:06:40;;;;;;;9.48;3.80;;;;;;;;;;6216800;23;20020;-86
2023/10/04 11:09:53;;;;;;;9.73;3.85;;;;;;;;;;6241964;22;20190;-86
2023/10/04 11:13:35;;;;;;;;;;;;;;;;;;;;;
2023/10/04 11:16:39;;;;;;;9.82;4.03;;;;;;;;;;6182405;23;20453;-86
2023/10/04 11:19:15;;;;;;;10.02;3.97;;;;;;;;;;6132669;23;20484;-86
2023/10/04 11:29:30;;;;;;;10.73;3.83;;;;;;;;;;6064380;23;20022;-85
2023/10/04 11:32:52;;;;;;;11.13;3.58;;;;;;;;;;6064586;23;20592;-86
2023/10/04 11:35:57;;;;;;;7.82;3.58;;;;;;;;;;6108962;23;20025;-86
2023/10/04 11:38:46;;;;;;;;;;;;;;;;;;;;;
2023/10/04 11:51:54;;;;;;;;;;;;;;;;;;6160448;23;20028;-86
2023/10/04 11:57:47;;;;;;;7.93;3.33;;;;;;;;;;6278588;22;20419;-85
2023/10/04 12:00:17;;;;;;;11.02;3.40;;;;;;;;;;6281179;22;20399;-85
2023/10/04 12:02:46;;;;;;;9.13;2.90;;;;;;;;;;6281682;22;20023;-86
2023/10/04 12:05:12;;;;;;;8.98;3.38;;;;;;;;;;6309009;22;20478;-85
2023/10/04 12:07:38;;;;;;;12.95;4.13;;;;;;;;;;6255553;22;20015;-85
2023/10/04 12:10:06;;;;;;;9.13;3.20;;;;;;;;;;6255461;22;20355;-85
2023/10/04 12:12:32;;;;;;;11.30;3.15;;;;;;;;;;6280050;22;20027;-85
2023/10/04 12:14:59;;;;;;;9.80;3.08;;;;;;;;;;6255615;22;20080;-86
2023/10/04 12:17:25;;;;;;;9.75;3.65;;;;;;;;;;6255785;22;20081;-86
2023/10/04 12:19:51;;;;;;;6.65;3.35;;;;;;;;;;6308544;22;20034;-85
2023/10/04 12:22:19;;;;;;;9.18;3.25;;;;;;;;;;6280637;22;20011;-85
2023/10/04 12:24:47;;;;;;;11.18;3.70;;;;;;;;;;6254894;22;20023;-86
2023/10/04 12:27:15;;;;;;;9.57;3.78;;;;;;;;;;6281000;22;20057;-86
2023/10/04 12:29:41;;;;;;;7.93;3.15;;;;;;;;;;6281782;22;20015;-85
2023/10/04 12:32:07;;;;;;;9.43;3.20;;;;;;;;;;6254953;22;20069;-85
2023/10/04 12:34:34;;;;;;;7.10;3.10;;;;;;;;;;6280802;22;20015;-86
2023/10/04 12:37:00;;;;;;;8.45;3.08;;;;;;;;;;6280677;22;20019;-86
2023/10/04 12:39:26;;;;;;;12.82;3.80;;;;;;;;;;6308141;22;20019;-85
2023/10/04 12:41:55;;;;;;;6.72;2.83;;;;;;;;;;6303828;22;20020;-85
2023/10/04 12:44:21;;;;;;;8.32;3.03;;;;;;;;;;6273167;22;20019;-85
2023/10/04 12:46:47;;;;;;;10.38;3.08;;;;;;;;;;6271976;22;20026;-85
2023/10/04 12:49:14;;;;;;;10.02;2.75;;;;;;;;;;6250157;22;20355;-86
2023/10/04 12:51:40;;;;;;;9.57;3.58;;;;;;;;;;6280551;22;20023;-88
2023/10/04 12:54:08;;;;;;;9.68;3.40;;;;;;;;;;6255109;22;20347;-87
2023/10/04 12:56:42;;;;;;;8.20;3.13;;;;;;;;;;6255118;22;20019;-86
2023/10/04 12:59:34;;;;;;;10.55;3.35;;;;;;;;;;6255149;22;20443;-87
2023/10/04 13:02:07;;;;;;;8.50;3.78;;;;;;;;;;6254864;22;20038;-86
2023/10/04 13:04:46;;;;;;;7.65;3.20;;;;;;;;;;6253214;22;20027;-87
2023/10/04 13:07:32;;;;;;;7.00;3.15;;;;;;;;;;6254077;22;20015;-87
2023/10/04 13:10:09;;;;;;;8.63;2.88;;;;;;;;;;6250883;22;20068;-87
2023/10/04 13:12:58;;;;;;;5.93;3.05;;;;;;;;;;6255830;22;20018;-87
2023/10/04 13:15:29;;;;;;;;;;;;;;;;;;6253777;22;20021;-87
2023/10/04 13:20:55;;;;;;;9.52;3.80;;;;;;;;;;6247341;22;20038;-88
2023/10/04 13:23:21;;;;;;;8.05;3.53;;;;;;;;;;6254636;22;20094;-87
2023/10/04 13:25:49;;;;;;;8.98;3.25;;;;;;;;;;6255150;22;20047;-86
2023/10/04 13:28:18;;;;;;;8.05;3.10;;;;;;;;;;6254981;22;20106;-87
2023/10/04 13:30:47;;;;;;;8.82;3.20;;;;;;;;;;6255036;22;20110;-87
2023/10/04 13:33:15;;;;;;;10.90;3.08;;;;;;;;;;6255022;22;20095;-89
2023/10/04 13:35:41;;;;;;;9.48;3.50;;;;;;;;;;6253923;22;20019;-86
2023/10/04 13:38:07;;;;;;;11.45;3.60;;;;;;;;;;6254575;22;20026;-87
2023/10/04 13:40:35;;;;;;;7.05;3.20;;;;;;;;;;6307626;22;20019;-86
2023/10/04 13:43:06;;;;;;;8.68;3.08;;;;;;;;;;6254924;22;20034;-86
2023/10/04 13:45:35;;;;;;;9.48;2.60;;;;;;;;;;6255248;22;20023;-86
2023/10/04 13:48:06;;;;;;;8.98;3.55;;;;;;;;;;6256021;22;20026;-86
2023/10/04 13:50:32;;;;;;;8.07;3.13;;;;;;;;;;6255794;22;20436;-86
2023/10/04 13:52:58;;;;;;;8.00;3.15;;;;;;;;;;6256238;22;20022;-87
2023/10/04 13:55:27;;;;;;;7.90;2.47;;;;;;;;;;6255466;22;20020;-86
2023/10/04 13:57:57;;;;;;;11.00;3.17;;;;;;;;;;6281127;22;20015;-85
2023/10/04 14:00:24;;;;;;;7.25;2.25;;;;;;;;;;6255240;22;20026;-87
2023/10/04 14:02:51;;;;;;;7.75;3.10;;;;;;;;;;6280967;22;20047;-87
2023/10/04 14:05:20;;;;;;;7.60;2.45;;;;;;;;;;6281232;22;20024;-87
2023/10/04 14:07:53;;;;;;;9.30;2.60;;;;;;;;;;6254822;22;20046;-86
2023/10/04 14:10:24;;;;;;;5.65;2.50;;;;;;;;;;6254698;22;20019;-85
2023/10/04 14:12:55;;;;;;;6.45;2.25;;;;;;;;;;6308371;22;20456;-85
2023/10/04 14:15:22;;;;;;;5.40;2.55;;;;;;;;;;6308261;22;20086;-85
2023/10/04 14:17:52;;;;;;;6.28;2.17;;;;;;;;;;6306740;22;20395;-85
2023/10/04 14:20:20;;;;;;;6.57;2.65;;;;;;;;;;6255162;22;20030;-85
2023/10/04 14:22:49;;;;;;;8.88;2.35;;;;;;;;;;6281132;22;20026;-87
2023/10/04 14:25:16;;;;;;;7.57;2.88;;;;;;;;;;6254672;22;20030;-86
2023/10/04 14:27:43;;;;;;;8.35;2.30;;;;;;;;;;6254855;22;20459;-88
2023/10/04 14:30:13;;;;;;;5.95;2.13;;;;;;;;;;6254857;22;20042;-85
2023/10/04 14:32:43;;;;;;;9.80;2.35;;;;;;;;;;6254741;22;20172;-85
2023/10/04 14:35:10;;;;;;;6.93;2.40;;;;;;;;;;6307132;22;20370;-85
2023/10/04 14:37:39;;;;;;;8.68;2.55;;;;;;;;;;6254549;22;20015;-85
2023/10/04 14:40:14;;;;;;;5.65;2.53;;;;;;;;;;6304772;22;20022;-85
2023/10/04 14:42:40;;;;;;;6.43;2.20;;;;;;;;;;6254121;22;20028;-85
2023/10/04 14:45:07;;;;;;;5.97;2.08;;;;;;;;;;6254200;22;20051;-85
2023/10/04 14:47:34;;;;;;;7.95;2.33;;;;;;;;;;6253917;22;20023;-85
2023/10/04 14:50:00;;;;;;;5.43;2.80;;;;;;;;;;6278734;22;20342;-86
2023/10/04 14:52:30;;;;;;;5.15;2.15;;;;;;;;;;6254050;22;20034;-85
2023/10/04 14:54:59;;;;;;;7.95;2.75;;;;;;;;;;6279320;22;20114;-86
2023/10/04 14:57:25;;;;;;;5.10;2.28;;;;;;;;;;6253763;22;20015;-86
2023/10/04 14:59:52;;;;;;;6.82;2.30;;;;;;;;;;6305874;22;20341;-85
2023/10/04 15:02:21;;;;;;;6.32;2.40;;;;;;;;;;6306690;22;20015;-88
2023/10/04 15:04:47;;;;;;;6.38;2.83;;;;;;;;;;6253876;22;20033;-86
2023/10/04 15:07:14;;;;;;;8.85;2.60;;;;;;;;;;6306978;22;20038;-86
2023/10/04 15:09:41;;;;;;;8.50;2.28;;;;;;;;;;6253715;22;20022;-86
2023/10/04 15:12:07;;;;;;;8.73;2.63;;;;;;;;;;6253362;22;20019;-87
2023/10/04 15:14:33;;;;;;;7.03;2.60;;;;;;;;;;6253144;22;20064;-86
2023/10/04 15:16:59;;;;;;;5.80;2.55;;;;;;;;;;6279026;22;20038;-85
2023/10/04 15:19:25;;;;;;;5.80;2.13;;;;;;;;;;6253861;22;20447;-85
2023/10/04 15:21:52;;;;;;;9.45;2.53;;;;;;;;;;6306920;22;20019;-86
2023/10/04 15:24:18;;;;;;;8.35;2.55;;;;;;;;;;6253757;22;20081;-86
2023/10/04 15:26:44;;;;;;;4.97;2.08;;;;;;;;;;6252517;22;20016;-86
2023/10/04 15:29:12;;;;;;;8.43;2.58;;;;;;;;;;6253828;22;20027;-86
2023/10/04 15:31:41;;;;;;;7.97;2.28;;;;;;;;;;6305944;22;20038;-87
2023/10/04 15:34:08;;;;;;;5.68;2.20;;;;;;;;;;6253736;22;20011;-89
2023/10/04 15:36:40;;;;;;;7.03;2.63;;;;;;;;;;6254918;22;20490;-86
2023/10/04 15:39:14;;;;;;;9.20;2.35;;;;;;;;;;6253148;22;20023;-87
2023/10/04 15:41:40;;;;;;;7.63;2.60;;;;;;;;;;6306679;22;20505;-88
2023/10/04 15:44:09;;;;;;;8.63;2.70;;;;;;;;;;6279538;22;20049;-88
2023/10/04 15:46:35;;;;;;;6.22;2.53;;;;;;;;;;6254115;22;20053;-87
2023/10/04 15:49:02;;;;;;;6.20;2.47;;;;;;;;;;6254030;22;20015;-88